createdAt,value
2022-08-24T00:00:15.927Z,1.65
2022-08-24T00:02:44.053Z,1.50
2022-08-24T00:05:14.760Z,0.98
2022-08-24T00:07:43.178Z,1.10
2022-08-24T00:10:13.589Z,0.98
2022-08-24T00:12:41.577Z,1.48
2022-08-24T00:15:11.801Z,1.38
2022-08-24T00:17:40.156Z,1.25
2022-08-24T00:20:09.497Z,1.23
2022-08-24T00:22:37.888Z,1.40
2022-08-24T00:25:06.538Z,1.23
2022-08-24T00:27:34.628Z,1.65
2022-08-24T00:30:02.640Z,1.10
2022-08-24T00:32:30.278Z,1.50
2022-08-24T00:34:59.511Z,1.08
2022-08-24T00:37:28.827Z,1.40
2022-08-24T00:39:57.411Z,1.38
2022-08-24T00:42:26.312Z,1.20
2022-08-24T00:44:54.305Z,1.23
2022-08-24T00:47:26.236Z,1.20
2022-08-24T00:50:11.333Z,1.40
2022-08-24T00:52:56.976Z,1.40
2022-08-24T00:55:36.247Z,1.20
2022-08-24T00:58:08.560Z,0.98
2022-08-24T01:00:48.481Z,1.27
2022-08-24T01:03:17.216Z,1.40
2022-08-24T01:05:46.034Z,1.15
2022-08-24T01:08:15.244Z,1.10
2022-08-24T01:10:46.135Z,1.15
2022-08-24T01:13:15.163Z,1.40
2022-08-24T01:15:46.902Z,1.10
2022-08-24T01:18:40.022Z,1.40
2022-08-24T01:21:10.629Z,1.30
2022-08-24T01:23:45.149Z,1.23
2022-08-24T01:26:34.412Z,1.33
2022-08-24T01:29:12.572Z,1.23
2022-08-24T01:31:40.728Z,1.50
2022-08-24T01:34:09.238Z,1.20
2022-08-24T01:36:52.322Z,1.45
2022-08-24T01:39:30.816Z,1.40
2022-08-24T01:41:59.537Z,1.70
2022-08-24T01:44:30.435Z,1.40
2022-08-24T01:46:58.614Z,1.00
2022-08-24T01:49:30.206Z,1.30
2022-08-24T01:52:01.172Z,1.30
2022-08-24T01:54:29.986Z,1.52
2022-08-24T01:56:58.089Z,1.38
2022-08-24T01:59:27.714Z,1.40
2022-08-24T02:02:01.323Z,1.35
2022-08-24T02:04:29.205Z,1.33
2022-08-24T02:06:59.729Z,1.65
2022-08-24T02:09:31.292Z,1.08
2022-08-24T02:12:03.159Z,1.63
2022-08-24T02:14:35.757Z,1.00
2022-08-24T02:17:05.002Z,1.63
2022-08-24T02:19:33.528Z,1.45
2022-08-24T02:22:01.740Z,1.30
2022-08-24T02:24:29.940Z,1.60
2022-08-24T02:26:58.664Z,1.60
2022-08-24T02:29:26.553Z,1.17
2022-08-24T02:31:54.488Z,1.50
2022-08-24T02:34:22.677Z,1.30
2022-08-24T02:36:51.032Z,1.02
2022-08-24T02:39:20.174Z,1.30
2022-08-24T02:41:50.307Z,1.20
2022-08-24T02:44:18.810Z,1.30
2022-08-24T02:46:46.848Z,1.23
2022-08-24T02:49:14.974Z,1.30
2022-08-24T02:51:47.519Z,1.30
2022-08-24T02:54:21.290Z,1.20
2022-08-24T02:56:52.043Z,1.55
2022-08-24T02:59:20.934Z,1.40
2022-08-24T03:01:50.340Z,1.42
2022-08-24T03:04:20.175Z,1.88
2022-08-24T03:06:48.426Z,1.40
2022-08-24T03:09:17.764Z,1.30
2022-08-24T03:11:45.791Z,1.42
2022-08-24T03:14:14.778Z,1.50
2022-08-24T03:16:43.605Z,1.42
2022-08-24T03:19:12.209Z,1.27
2022-08-24T03:21:41.837Z,1.30
2022-08-24T03:24:09.759Z,1.40
2022-08-24T03:26:39.161Z,1.30
2022-08-24T03:29:13.659Z,1.40
2022-08-24T03:31:44.399Z,1.40
2022-08-24T03:34:13.766Z,1.95
2022-08-24T03:36:46.797Z,1.58
2022-08-24T03:39:16.711Z,1.35
2022-08-24T03:41:45.063Z,1.50
2022-08-24T03:44:13.253Z,1.45
2022-08-24T03:46:41.775Z,1.35
2022-08-24T03:49:10.637Z,1.30
2022-08-24T03:51:39.386Z,1.73
2022-08-24T04:00:00.268Z,1.35
2022-08-24T04:02:32.761Z,1.55
2022-08-24T04:05:01.085Z,1.40
2022-08-24T04:07:29.131Z,1.17
2022-08-24T04:09:57.997Z,1.30
2022-08-24T04:12:26.789Z,1.35
2022-08-24T04:14:56.291Z,1.40
2022-08-24T04:17:25.468Z,1.30
2022-08-24T04:19:59.721Z,1.70
2022-08-24T04:22:34.413Z,1.40
2022-08-24T04:25:08.933Z,1.98
2022-08-24T04:27:40.661Z,1.30
2022-08-24T04:30:09.820Z,1.23
2022-08-24T04:33:02.585Z,1.40
2022-08-24T04:35:30.644Z,1.42
2022-08-24T04:37:58.900Z,1.90
2022-08-24T04:40:26.893Z,1.67
2022-08-24T04:42:54.707Z,1.30
2022-08-24T04:45:23.444Z,2.00
2022-08-24T04:47:51.851Z,1.60
2022-08-24T04:50:20.621Z,1.80
2022-08-24T04:52:52.692Z,1.50
2022-08-24T04:55:20.607Z,1.50
2022-08-24T04:57:51.343Z,1.45
2022-08-24T05:00:19.320Z,1.90
2022-08-24T05:02:47.270Z,1.77
2022-08-24T05:05:15.549Z,1.30
2022-08-24T05:07:45.304Z,1.98
2022-08-24T05:10:14.925Z,1.88
2022-08-24T05:12:43.631Z,2.13
2022-08-24T05:15:13.253Z,1.40
2022-08-24T05:17:50.961Z,1.65
2022-08-24T05:20:20.407Z,1.30
2022-08-24T05:22:50.946Z,1.73
2022-08-24T05:25:21.493Z,1.90
2022-08-24T05:27:50.126Z,1.77
2022-08-24T05:30:18.673Z,1.67
2022-08-24T05:32:47.284Z,2.13
2022-08-24T05:35:15.367Z,1.80
2022-08-24T05:37:43.420Z,1.67
2022-08-24T05:40:17.301Z,1.70
2022-08-24T05:42:49.368Z,1.98
2022-08-24T05:45:18.030Z,2.20
2022-08-24T05:47:46.031Z,1.92
2022-08-24T05:50:39.849Z,2.03
2022-08-24T05:53:08.852Z,2.17
2022-08-24T05:55:39.847Z,2.10
2022-08-24T05:58:08.033Z,2.05
2022-08-24T06:00:41.228Z,2.45
2022-08-24T06:03:11.961Z,2.60
2022-08-24T06:05:49.505Z,2.05
2022-08-24T06:08:17.482Z,2.17
2022-08-24T06:10:48.247Z,2.92
2022-08-24T06:13:16.972Z,2.10
2022-08-24T06:15:59.369Z,2.25
2022-08-24T06:18:34.137Z,2.03
2022-08-24T06:21:10.136Z,2.28
2022-08-24T06:23:41.204Z,2.22
2022-08-24T06:26:28.923Z,2.33
2022-08-24T06:28:57.080Z,2.08
2022-08-24T06:31:26.482Z,2.20
2022-08-24T06:33:57.204Z,2.55
2022-08-24T06:36:25.632Z,2.42
2022-08-24T06:38:54.296Z,2.17
2022-08-24T06:41:23.200Z,1.98
2022-08-24T06:43:51.181Z,2.63
2022-08-24T06:46:24.054Z,2.25
2022-08-24T06:48:54.274Z,2.58
2022-08-24T06:51:22.908Z,2.80
2022-08-24T06:53:51.724Z,2.70
2022-08-24T06:56:21.943Z,2.20
2022-08-24T06:58:50.500Z,2.40
2022-08-24T07:01:26.016Z,2.75
2022-08-24T07:03:55.189Z,2.58
2022-08-24T07:06:58.596Z,2.85
2022-08-24T07:09:27.579Z,2.45
2022-08-24T07:11:55.660Z,2.47
2022-08-24T07:14:23.327Z,2.30
2022-08-24T07:16:51.728Z,2.95
2022-08-24T07:19:19.877Z,2.30
2022-08-24T07:21:48.009Z,2.30
2022-08-24T07:24:16.067Z,2.42
2022-08-24T07:26:45.076Z,2.80
2022-08-24T07:29:44.053Z,2.50
2022-08-24T07:32:05.870Z,2.63
2022-08-24T07:34:39.233Z,2.33
2022-08-24T07:37:08.636Z,2.42
2022-08-24T07:39:39.948Z,2.92
2022-08-24T07:42:13.248Z,2.47
2022-08-24T07:44:42.098Z,2.42
2022-08-24T07:47:36.396Z,2.65
2022-08-24T07:49:59.608Z,2.53
2022-08-24T07:52:28.157Z,2.95
2022-08-24T07:54:57.516Z,2.97
2022-08-24T07:57:26.096Z,2.33
2022-08-24T07:59:56.410Z,2.53
2022-08-24T08:02:26.970Z,2.65
2022-08-24T08:05:05.663Z,2.30
2022-08-24T08:07:33.707Z,2.58
2022-08-24T08:10:02.833Z,3.00
2022-08-24T08:12:32.041Z,2.90
2022-08-24T08:15:00.140Z,3.00
2022-08-24T08:17:28.617Z,2.60
2022-08-24T08:19:56.597Z,2.47
2022-08-24T08:22:43.522Z,2.50
2022-08-24T08:25:49.187Z,3.15
2022-08-24T08:28:25.705Z,2.92
2022-08-24T08:31:02.373Z,2.75
2022-08-24T08:33:31.954Z,2.40
2022-08-24T08:36:15.213Z,2.72
2022-08-24T08:38:48.279Z,2.92
2022-08-24T08:41:37.768Z,2.88
2022-08-24T08:44:39.655Z,2.50
2022-08-24T08:47:45.075Z,2.80
2022-08-24T08:50:32.807Z,3.35
2022-08-24T08:53:25.932Z,2.45
2022-08-24T08:56:07.015Z,2.50
2022-08-24T08:58:53.742Z,2.80
2022-08-24T09:01:56.680Z,2.58
2022-08-24T09:05:03.866Z,2.38
2022-08-24T09:07:58.629Z,2.83
2022-08-24T09:10:30.788Z,3.13
2022-08-24T09:13:16.519Z,2.90
2022-08-24T09:16:24.516Z,2.90
2022-08-24T09:19:15.831Z,2.80
2022-08-24T09:21:54.492Z,2.30
2022-08-24T09:24:47.884Z,2.30
2022-08-24T09:27:57.113Z,2.92
2022-08-24T09:30:28.331Z,2.58
2022-08-24T09:33:06.917Z,2.35
2022-08-24T09:35:59.445Z,2.40
2022-08-24T09:39:00.711Z,2.30
2022-08-24T09:41:55.949Z,2.53
2022-08-24T09:44:32.675Z,2.72
2022-08-24T09:47:08.996Z,2.60
2022-08-24T09:50:07.940Z,2.50
2022-08-24T09:52:49.608Z,2.95
2022-08-24T09:55:56.419Z,2.25
2022-08-24T09:58:24.049Z,2.38
2022-08-24T10:01:10.396Z,2.38
2022-08-24T10:04:22.890Z,2.60
2022-08-24T10:07:14.781Z,3.05
2022-08-24T10:09:51.044Z,2.25
2022-08-24T10:12:43.997Z,3.03
2022-08-24T10:15:28.903Z,2.22
2022-08-24T10:18:22.651Z,2.13
2022-08-24T10:20:50.954Z,2.70
2022-08-24T10:23:34.068Z,2.53
2022-08-24T10:26:03.481Z,2.67
2022-08-24T10:29:00.414Z,2.50
2022-08-24T10:31:38.637Z,2.40
2022-08-24T10:34:28.477Z,2.13
2022-08-24T10:37:22.662Z,2.10
2022-08-24T10:40:10.571Z,2.00
2022-08-24T10:43:02.985Z,2.00
2022-08-24T10:45:33.687Z,2.47
2022-08-24T10:48:29.992Z,2.25
2022-08-24T10:51:16.748Z,2.03
2022-08-24T10:53:50.875Z,2.08
2022-08-24T10:57:03.040Z,1.70
2022-08-24T10:59:43.956Z,2.00
2022-08-24T11:02:35.098Z,1.98
2022-08-24T11:05:06.521Z,1.80
2022-08-24T11:07:34.634Z,2.17
2022-08-24T11:10:06.969Z,2.28
2022-08-24T11:12:36.056Z,1.65
2022-08-24T11:15:19.361Z,1.63
2022-08-24T11:18:04.473Z,1.52
2022-08-24T11:20:36.655Z,1.65
2022-08-24T11:23:10.704Z,1.80
2022-08-24T11:25:40.434Z,1.87
2022-08-24T11:28:21.861Z,1.73
2022-08-24T11:30:50.130Z,2.05
2022-08-24T11:33:32.803Z,1.90
2022-08-24T11:36:01.908Z,2.08
2022-08-24T11:38:36.887Z,2.05
2022-08-24T11:41:27.934Z,2.03
2022-08-24T11:44:04.776Z,1.80
2022-08-24T11:46:58.539Z,1.65
2022-08-24T11:49:39.776Z,2.05
2022-08-24T11:52:43.932Z,1.67
2022-08-24T11:55:51.751Z,2.00
2022-08-24T11:58:48.465Z,1.90
2022-08-24T12:01:36.392Z,2.13
2022-08-24T12:04:30.779Z,1.85
2022-08-24T12:07:40.332Z,2.08
2022-08-24T12:10:32.749Z,1.60
2022-08-24T12:13:20.640Z,2.17
2022-08-24T12:16:11.576Z,2.10
2022-08-24T12:18:48.627Z,2.38
2022-08-24T12:21:22.364Z,2.03
2022-08-24T12:23:59.694Z,1.50
2022-08-24T12:26:44.993Z,1.40
2022-08-24T12:29:40.118Z,1.60
2022-08-24T12:32:27.185Z,2.00
2022-08-24T12:35:03.089Z,1.80
2022-08-24T12:37:39.212Z,1.85
2022-08-24T12:40:12.911Z,1.50
2022-08-24T12:42:52.018Z,1.50
2022-08-24T12:45:22.643Z,1.65
2022-08-24T12:48:21.156Z,2.00
2022-08-24T12:50:56.515Z,1.92
2022-08-24T12:53:45.814Z,1.80
2022-08-24T12:56:38.565Z,1.70
2022-08-24T12:59:24.851Z,1.92
2022-08-24T13:02:19.946Z,1.77
2022-08-24T13:04:51.158Z,1.77
2022-08-24T13:07:24.747Z,1.50
2022-08-24T13:10:01.615Z,1.63
2022-08-24T13:12:45.237Z,1.98
2022-08-24T13:15:30.694Z,1.85
2022-08-24T13:18:10.976Z,1.73
2022-08-24T13:20:44.811Z,2.25
2022-08-24T13:23:16.112Z,1.80
2022-08-24T13:25:59.519Z,1.40
2022-08-24T13:28:28.600Z,1.40
2022-08-24T13:31:06.005Z,1.63
2022-08-24T13:33:39.298Z,1.63
2022-08-24T13:36:35.078Z,1.98
2022-08-24T13:39:09.945Z,1.65
2022-08-24T13:41:57.540Z,2.00
2022-08-24T13:44:34.743Z,1.70
2022-08-24T13:47:26.511Z,1.85
2022-08-24T13:50:02.200Z,1.95
2022-08-24T13:53:12.434Z,1.85
2022-08-24T13:56:10.778Z,1.85
2022-08-24T13:59:14.880Z,2.10
2022-08-24T14:02:08.531Z,1.70
2022-08-24T14:04:42.413Z,1.85
2022-08-24T14:07:25.228Z,2.13
2022-08-24T14:10:11.306Z,1.73
2022-08-24T14:13:17.481Z,2.28
2022-08-24T14:16:52.647Z,2.28
2022-08-24T14:19:23.277Z,2.03
2022-08-24T14:22:11.327Z,1.92
2022-08-24T14:24:49.703Z,1.90
2022-08-24T14:27:40.978Z,1.80
2022-08-24T14:30:23.628Z,1.88
2022-08-24T14:33:00.642Z,2.28
2022-08-24T14:35:33.865Z,2.17
2022-08-24T14:38:24.771Z,2.22
2022-08-24T14:41:11.488Z,2.47
2022-08-24T14:44:01.470Z,2.42
2022-08-24T14:46:36.180Z,2.28
2022-08-24T14:51:55.836Z,2.03
2022-08-24T14:54:37.418Z,1.65
2022-08-24T14:57:38.197Z,1.95
2022-08-24T15:00:07.690Z,2.30
2022-08-24T15:03:02.314Z,2.17
2022-08-24T15:05:32.748Z,2.27
2022-08-24T15:08:15.909Z,1.75
2022-08-24T15:11:18.609Z,1.85
2022-08-24T15:14:01.845Z,2.47
2022-08-24T15:16:54.255Z,2.63
2022-08-24T15:19:32.570Z,2.25
2022-08-24T15:22:06.953Z,2.03
2022-08-24T15:24:41.701Z,1.85
2022-08-24T15:29:53.118Z,2.13
2022-08-24T15:32:28.004Z,2.00
2022-08-24T15:34:58.536Z,2.33
2022-08-24T15:37:33.370Z,2.47
2022-08-24T15:40:01.738Z,2.05
2022-08-24T15:42:32.250Z,2.08
2022-08-24T15:45:02.534Z,1.90
2022-08-24T15:47:31.314Z,2.85
2022-08-24T15:50:08.682Z,2.30
2022-08-24T15:52:44.093Z,2.35
2022-08-24T15:55:28.554Z,2.42
2022-08-24T15:57:57.095Z,1.92
2022-08-24T16:00:55.104Z,2.00
2022-08-24T16:03:48.029Z,1.67
2022-08-24T16:06:34.018Z,2.50
2022-08-24T16:09:04.856Z,1.80
2022-08-24T16:11:39.983Z,2.10
2022-08-24T16:14:27.976Z,1.83
2022-08-24T16:16:58.159Z,1.85
2022-08-24T16:19:33.221Z,3.05
2022-08-24T16:22:07.711Z,1.98
2022-08-24T16:24:41.618Z,2.20
2022-08-24T16:27:12.790Z,1.80
2022-08-24T16:29:41.554Z,1.75
2022-08-24T16:32:32.039Z,1.80
2022-08-24T16:35:23.327Z,1.88
2022-08-24T16:37:53.075Z,1.83
2022-08-24T16:40:21.560Z,2.00
2022-08-24T16:42:49.321Z,1.90
2022-08-24T16:45:23.175Z,1.88
2022-08-24T16:47:51.359Z,1.57
2022-08-24T16:50:20.962Z,1.77
2022-08-24T16:52:50.550Z,1.85
2022-08-24T16:55:18.626Z,1.98
2022-08-24T16:57:47.764Z,1.95
2022-08-24T17:00:17.914Z,2.00
2022-08-24T17:02:48.393Z,2.17
2022-08-24T17:05:18.028Z,1.33
2022-08-24T17:07:46.119Z,1.58
2022-08-24T17:10:16.374Z,1.50
2022-08-24T17:12:44.148Z,1.65
2022-08-24T17:15:13.177Z,1.45
2022-08-24T17:17:42.346Z,1.58
2022-08-24T17:20:11.205Z,1.60
2022-08-24T17:22:39.630Z,1.70
2022-08-24T17:25:07.906Z,1.50
2022-08-24T17:27:36.009Z,2.00
2022-08-24T17:30:05.896Z,2.13
2022-08-24T17:32:33.775Z,1.77
2022-08-24T17:35:03.480Z,1.40
2022-08-24T17:37:31.451Z,1.67
2022-08-24T17:40:00.953Z,1.63
2022-08-24T17:42:49.565Z,1.45
2022-08-24T17:45:17.127Z,1.73
2022-08-24T17:47:45.308Z,2.10
2022-08-24T17:50:15.966Z,1.80
2022-08-24T17:52:44.613Z,1.73
2022-08-24T17:55:13.988Z,2.90
2022-08-24T17:57:44.600Z,1.50
2022-08-24T18:00:16.715Z,1.70
2022-08-24T18:02:44.555Z,2.33
2022-08-24T18:05:14.513Z,1.73
2022-08-24T18:07:53.604Z,1.60
2022-08-24T18:10:30.856Z,1.85
2022-08-24T18:12:59.821Z,2.05
2022-08-24T18:15:35.449Z,1.40
2022-08-24T18:18:07.851Z,2.20
2022-08-24T18:20:40.026Z,1.98
2022-08-24T18:23:11.418Z,1.85
2022-08-24T18:25:47.884Z,2.10
2022-08-24T18:28:16.901Z,2.40
2022-08-24T18:30:45.969Z,2.38
2022-08-24T18:33:14.013Z,2.40
2022-08-24T18:35:41.978Z,2.70
2022-08-24T18:38:09.740Z,1.92
2022-08-24T18:40:37.810Z,2.00
2022-08-24T18:43:06.012Z,2.33
2022-08-24T18:45:34.394Z,2.22
2022-08-24T18:48:02.661Z,2.00
2022-08-24T18:50:30.901Z,2.60
2022-08-24T18:52:59.809Z,2.17
2022-08-24T18:55:27.870Z,2.47
2022-08-24T18:57:56.257Z,1.75
2022-08-24T19:00:24.052Z,1.95
2022-08-24T19:02:51.935Z,2.03
2022-08-24T19:05:23.561Z,2.55
2022-08-24T19:07:53.479Z,2.88
2022-08-24T19:10:24.063Z,2.50
2022-08-24T19:13:00.710Z,2.20
2022-08-24T19:15:39.206Z,2.20
2022-08-24T19:18:11.467Z,2.22
2022-08-24T19:20:48.295Z,2.70
2022-08-24T19:23:28.491Z,2.83
2022-08-24T19:25:57.120Z,2.65
2022-08-24T19:28:26.707Z,2.85
2022-08-24T19:31:00.134Z,2.60
2022-08-24T19:33:37.871Z,3.05
2022-08-24T19:36:06.375Z,3.03
2022-08-24T19:38:34.174Z,3.08
2022-08-24T19:41:05.359Z,2.72
2022-08-24T19:44:00.104Z,2.40
2022-08-24T19:46:28.637Z,2.40
2022-08-24T19:48:56.573Z,3.00
2022-08-24T19:51:24.819Z,3.10
2022-08-24T19:53:53.063Z,4.10
2022-08-24T19:56:20.966Z,2.78
2022-08-24T19:58:57.652Z,3.78
2022-08-24T20:01:36.803Z,3.35
2022-08-24T20:04:08.373Z,3.35
2022-08-24T20:06:37.138Z,3.22
2022-08-24T20:09:06.058Z,3.33
2022-08-24T20:11:34.160Z,4.63
2022-08-24T20:14:02.910Z,3.55
2022-08-24T20:16:39.281Z,3.63
2022-08-24T20:19:07.896Z,3.75
2022-08-24T20:21:36.021Z,3.75
2022-08-24T20:24:03.998Z,3.75
2022-08-24T20:26:35.615Z,3.30
2022-08-24T20:29:03.777Z,3.45
2022-08-24T20:31:32.044Z,3.17
2022-08-24T20:34:00.036Z,3.75
2022-08-24T20:36:36.722Z,3.20
2022-08-24T20:39:07.082Z,4.15
2022-08-24T20:41:35.665Z,3.45
2022-08-24T20:44:04.045Z,3.92
2022-08-24T20:46:32.909Z,3.95
2022-08-24T20:49:01.835Z,3.50
2022-08-24T20:51:30.171Z,3.65
2022-08-24T20:53:58.041Z,3.63
2022-08-24T20:56:31.575Z,3.35
2022-08-24T20:59:04.854Z,3.65
2022-08-24T21:01:33.609Z,3.42
2022-08-24T21:04:05.073Z,4.68
2022-08-24T21:06:33.336Z,4.28
2022-08-24T21:09:01.070Z,3.53
2022-08-24T21:11:29.529Z,3.65
2022-08-24T21:13:57.401Z,3.60
2022-08-24T21:16:25.291Z,3.83
2022-08-24T21:18:53.304Z,5.00
2022-08-24T21:21:21.242Z,4.32
2022-08-24T21:23:49.054Z,3.80
2022-08-24T21:26:22.329Z,3.47
2022-08-24T21:28:50.537Z,3.90
2022-08-24T21:31:18.347Z,4.00
2022-08-24T21:34:04.995Z,4.18
2022-08-24T21:36:32.942Z,3.50
2022-08-24T21:39:00.861Z,3.80
2022-08-24T21:41:29.676Z,4.10
2022-08-24T21:43:58.058Z,4.03
2022-08-24T21:46:36.383Z,3.80
2022-08-24T21:49:04.716Z,3.60
2022-08-24T21:51:33.168Z,3.63
2022-08-24T21:54:01.524Z,3.72
2022-08-24T21:56:31.935Z,3.65
2022-08-24T21:59:00.053Z,3.65
2022-08-24T22:01:29.159Z,3.75
2022-08-24T22:03:58.540Z,4.03
2022-08-24T22:06:30.659Z,3.95
2022-08-24T22:08:59.773Z,4.05
2022-08-24T22:11:28.156Z,3.83
2022-08-24T22:13:56.017Z,4.55
2022-08-24T22:16:23.933Z,3.63
2022-08-24T22:18:51.907Z,3.50
2022-08-24T22:21:23.664Z,3.95
2022-08-24T22:23:51.747Z,4.15
2022-08-24T22:26:19.956Z,3.97
2022-08-24T22:28:48.221Z,3.95
2022-08-24T22:31:18.387Z,4.63
2022-08-24T22:33:46.873Z,3.90
2022-08-24T22:36:15.616Z,4.20
2022-08-24T22:38:43.830Z,3.55
2022-08-24T22:41:12.091Z,4.70
2022-08-24T22:43:59.023Z,4.30
2022-08-24T22:46:28.675Z,3.70
2022-08-24T22:48:56.689Z,3.92
2022-08-24T22:51:24.789Z,4.10
2022-08-24T22:53:53.157Z,3.97
2022-08-24T22:56:29.657Z,3.88
2022-08-24T22:58:58.071Z,4.35
2022-08-24T23:01:35.336Z,4.80
2022-08-24T23:04:05.942Z,3.92
2022-08-24T23:06:33.969Z,4.22
2022-08-24T23:09:01.881Z,3.83
2022-08-24T23:11:29.790Z,3.53
2022-08-24T23:13:58.886Z,3.67
2022-08-24T23:16:27.551Z,3.97
2022-08-24T23:19:13.908Z,4.10
2022-08-24T23:21:42.309Z,4.38
2022-08-24T23:24:11.225Z,4.50
2022-08-24T23:26:40.092Z,3.88
2022-08-24T23:29:09.070Z,4.30
2022-08-24T23:31:37.259Z,4.15
2022-08-24T23:34:08.121Z,4.45
2022-08-24T23:36:36.697Z,4.45
2022-08-24T23:39:07.221Z,3.70
2022-08-24T23:41:37.362Z,4.78
2022-08-24T23:44:10.935Z,3.72
2022-08-24T23:46:39.673Z,4.05
2022-08-24T23:49:08.163Z,4.10
2022-08-24T23:51:36.909Z,4.20
2022-08-24T23:54:06.163Z,4.07
2022-08-24T23:56:35.975Z,4.88
